Airfield :
LOGIN :

Register | Disclaimer

   EN    FR    IT 

 










Legend :    VFR   Marginal VFR   IFR   Intensive IFR   Very Intensive IFR
Visi :
Ceiling :
>= 8 km
>= 3000ft
5 to 8 km
1000 to 3000 ft
1500m to 5 km
500 to 1000 ft
800 to 1500m
200 to 500 ft
< 800m
< 200 ft
Symbols :   Thunderstorms  Fog  Heavy snow  Heavy precipitations  Wind > 20 kt
SIGMETs :     Misc.  Thunderstorms  Icing  Turbulence  Mountain Waves  Volcanic Ashes







- Airport Elevation : 1090 ft
- IATA code : CFE
- Download approach charts


LFLC - Clermont-Ferrand Auvergne

CURRENT METAR :
  • 191330Z AUTO 10005KT 9999 OVC021 07/03 Q1023 NOSIG

EXPIRED METARs :
  • 191300Z AUTO 10004KT 9999 OVC021 08/03 Q1023 NOSIG
  • 191230Z AUTO 09004KT 9999 OVC022 08/02 Q1023 NOSIG
  • 191200Z AUTO 12003KT 9999 OVC021 07/02 Q1023 NOSIG
  • 191130Z AUTO 15004KT 110V170 9999 OVC022 07/02 Q1023 NOSIG
  • 191100Z AUTO 17006KT 9999 OVC021 06/02 Q1024 NOSIG

TAF TAF LFLC
Valid from the 19 at 09:00 until the 20 at 09:00 UTC


190800Z 1909/2009 VRB03KT 9999 SCT020 SCT030
TEMPO 1909/1915 BKN017
BECMG 1914/1916 BKN022
PROB40
TEMPO 1916/2001 3000 -DZ BR BKN008 OVC012
TEMPO 2001/2008 4000 BR BKN010
ATIS : +33 4 73 62 74 38
No reported NOTAMs for that airfield.



MET'MAP, your aeronautical weather chart ! - Copyright ORBIFLY December 2007 - Disclaimer

ORBIFLY MET'MAP TEAM :

Programming & Development : Alexandra Zaïnal
Concept & Development : Baudouin d'Aumeries
Co-Development & Prog : Marc-Olivier Méhu
Technical & hardware support : Manuel Goepfert

Contact : metmap@orbifly.com




SOURCES & CREDITS :

   NOAA